createdAt,value
2023-04-10T00:00:36.372Z,9.45
2023-04-10T00:03:03.513Z,10.55
2023-04-10T00:05:30.819Z,10.52
2023-04-10T00:07:57.618Z,9.30
2023-04-10T00:10:26.429Z,10.55
2023-04-10T00:12:54.056Z,10.32
2023-04-10T00:15:21.011Z,11.18
2023-04-10T00:17:47.826Z,11.45
2023-04-10T00:20:14.771Z,10.27
2023-04-10T00:22:42.939Z,12.18
2023-04-10T00:25:09.895Z,10.27
2023-04-10T00:27:36.755Z,10.75
2023-04-10T00:30:03.785Z,11.73
2023-04-10T00:32:30.657Z,11.18
2023-04-10T00:34:57.558Z,10.30
2023-04-10T00:37:24.489Z,10.00
2023-04-10T00:39:51.485Z,9.93
2023-04-10T00:42:18.248Z,10.55
2023-04-10T00:44:45.387Z,10.45
2023-04-10T00:47:14.206Z,9.82
2023-04-10T00:49:44.715Z,11.80
2023-04-10T00:52:12.266Z,11.00
2023-04-10T00:54:39.811Z,10.02
2023-04-10T00:57:07.123Z,10.80
2023-04-10T00:59:34.548Z,9.75
2023-04-10T01:02:01.638Z,10.27
2023-04-10T01:04:30.979Z,11.95
2023-04-10T01:07:29.766Z,11.20
2023-04-10T01:10:31.000Z,10.77
2023-04-10T01:13:21.945Z,10.27
2023-04-10T01:15:58.198Z,10.45
2023-04-10T01:18:34.107Z,11.20
2023-04-10T01:21:02.980Z,10.13
2023-04-10T01:23:48.667Z,10.75
2023-04-10T01:26:19.799Z,9.55
2023-04-10T01:29:00.324Z,10.88
2023-04-10T01:31:52.765Z,11.43
2023-04-10T01:34:24.646Z,10.75
2023-04-10T01:37:02.509Z,12.48
2023-04-10T01:39:31.366Z,11.95
2023-04-10T01:41:59.967Z,11.18
2023-04-10T01:44:30.366Z,10.85
2023-04-10T01:46:58.161Z,10.98
2023-04-10T01:49:28.233Z,11.70
2023-04-10T01:51:58.487Z,11.50
2023-04-10T01:54:28.101Z,11.75
2023-04-10T01:56:56.823Z,11.98
2023-04-10T01:59:23.652Z,14.13
2023-04-10T02:01:56.890Z,12.00
2023-04-10T02:04:24.004Z,13.57
2023-04-10T02:07:02.250Z,13.05
2023-04-10T02:09:58.852Z,12.00
2023-04-10T02:12:39.464Z,12.77
2023-04-10T02:15:08.802Z,12.63
2023-04-10T02:17:36.640Z,12.43
2023-04-10T02:20:06.635Z,11.85
2023-04-10T02:22:34.310Z,11.85
2023-04-10T02:25:04.083Z,12.77
2023-04-10T02:27:32.820Z,11.13
2023-04-10T02:30:00.464Z,12.30
2023-04-10T02:32:27.382Z,11.98
2023-04-10T02:34:54.407Z,11.43
2023-04-10T02:37:21.309Z,12.38
2023-04-10T02:39:48.132Z,10.93
2023-04-10T02:42:15.013Z,12.38
2023-04-10T02:44:41.819Z,11.40
2023-04-10T02:47:08.661Z,12.20
2023-04-10T02:49:35.952Z,11.95
2023-04-10T02:52:02.942Z,13.60
2023-04-10T02:54:29.787Z,12.85
2023-04-10T02:56:57.788Z,11.00
2023-04-10T02:59:24.670Z,11.55
2023-04-10T03:01:54.590Z,11.23
2023-04-10T03:04:21.534Z,11.38
2023-04-10T03:06:48.380Z,12.57
2023-04-10T03:09:15.207Z,12.00
2023-04-10T03:11:42.146Z,11.98
2023-04-10T03:14:12.262Z,12.55
2023-04-10T03:16:39.158Z,11.70
2023-04-10T03:19:06.344Z,12.48
2023-04-10T03:21:33.203Z,11.77
2023-04-10T03:24:00.015Z,11.65
2023-04-10T03:26:27.869Z,10.60
2023-04-10T03:28:54.686Z,11.07
2023-04-10T03:31:21.740Z,10.40
2023-04-10T03:33:48.647Z,11.27
2023-04-10T03:36:15.610Z,11.70
2023-04-10T03:38:42.452Z,11.43
2023-04-10T03:41:09.264Z,12.00
2023-04-10T03:43:36.075Z,11.50
2023-04-10T03:46:02.890Z,11.15
2023-04-10T03:48:30.702Z,9.65
2023-04-10T03:50:57.664Z,10.50
2023-04-10T03:53:24.843Z,11.55
2023-04-10T03:55:54.466Z,11.23
2023-04-10T03:58:21.418Z,12.32
2023-04-10T04:00:48.426Z,10.38
2023-04-10T04:03:16.180Z,11.63
2023-04-10T04:05:43.139Z,11.90
2023-04-10T04:08:09.936Z,11.40
2023-04-10T04:10:36.727Z,10.15
2023-04-10T04:13:03.527Z,11.73
2023-04-10T04:15:30.415Z,11.07
2023-04-10T04:17:57.968Z,10.45
2023-04-10T04:20:24.779Z,10.48
2023-04-10T04:22:51.591Z,10.45
2023-04-10T04:25:19.783Z,10.50
2023-04-10T04:27:46.613Z,11.82
2023-04-10T04:30:13.465Z,10.93
2023-04-10T04:32:40.411Z,12.13
2023-04-10T04:35:07.848Z,11.80
2023-04-10T04:37:34.664Z,11.23
2023-04-10T04:40:01.908Z,12.00
2023-04-10T04:42:28.734Z,12.02
2023-04-10T04:44:55.506Z,10.88
2023-04-10T04:47:24.408Z,11.20
2023-04-10T04:49:51.346Z,11.95
2023-04-10T04:52:18.177Z,12.98
2023-04-10T04:54:45.003Z,12.30
2023-04-10T04:57:11.795Z,12.35
2023-04-10T04:59:38.804Z,12.98
2023-04-10T05:02:05.766Z,15.07
2023-04-10T05:04:32.731Z,13.32
2023-04-10T05:06:59.533Z,14.10
2023-04-10T05:09:26.344Z,13.80
2023-04-10T05:11:54.511Z,14.05
2023-04-10T05:14:22.384Z,14.68
2023-04-10T05:16:49.187Z,16.23
2023-04-10T05:19:16.361Z,16.10
2023-04-10T05:21:43.326Z,16.15
2023-04-10T05:24:10.214Z,15.15
2023-04-10T05:26:36.979Z,17.20
2023-04-10T05:29:04.474Z,15.70
2023-04-10T05:31:31.442Z,16.98
2023-04-10T05:33:58.521Z,16.52
2023-04-10T05:36:25.638Z,16.45
2023-04-10T05:38:53.025Z,17.38
2023-04-10T05:41:20.128Z,15.02
2023-04-10T05:43:46.918Z,16.95
2023-04-10T05:46:13.771Z,16.00
2023-04-10T05:48:40.617Z,14.85
2023-04-10T05:51:07.769Z,14.52
2023-04-10T05:53:34.709Z,15.88
2023-04-10T05:56:02.253Z,15.73
2023-04-10T05:58:32.635Z,14.80
2023-04-10T06:00:59.531Z,15.02
2023-04-10T06:03:27.799Z,14.15
2023-04-10T06:05:54.787Z,13.80
2023-04-10T06:08:22.879Z,14.57
2023-04-10T06:10:49.696Z,12.73
2023-04-10T06:13:16.743Z,13.50
2023-04-10T06:15:43.607Z,13.60
2023-04-10T06:18:10.995Z,13.15
2023-04-10T06:20:38.027Z,13.35
2023-04-10T06:23:05.922Z,13.32
2023-04-10T06:25:33.059Z,12.07
2023-04-10T06:28:00.079Z,12.35
2023-04-10T06:30:26.882Z,12.60
2023-04-10T06:32:53.726Z,12.55
2023-04-10T06:35:21.359Z,12.00
2023-04-10T06:37:48.293Z,11.98
2023-04-10T06:40:16.220Z,10.10
2023-04-10T06:42:43.081Z,10.93
2023-04-10T06:45:10.372Z,10.93
2023-04-10T06:47:37.256Z,10.32
2023-04-10T06:50:04.360Z,10.30
2023-04-10T06:52:31.850Z,9.13
2023-04-10T06:54:58.717Z,10.20
2023-04-10T06:57:25.690Z,10.10
2023-04-10T06:59:52.576Z,9.13
2023-04-10T07:02:19.484Z,8.93
2023-04-10T07:04:46.695Z,9.75
2023-04-10T07:07:14.088Z,8.95
2023-04-10T07:09:41.307Z,9.57
2023-04-10T07:12:08.222Z,9.15
2023-04-10T07:14:35.864Z,9.18
2023-04-10T07:17:03.030Z,10.45
2023-04-10T07:19:29.948Z,9.38
2023-04-10T07:21:56.914Z,8.77
2023-04-10T07:24:23.879Z,9.55
2023-04-10T07:26:50.814Z,8.98
2023-04-10T07:29:17.829Z,9.02
2023-04-10T07:31:44.841Z,9.45
2023-04-10T07:34:12.168Z,8.32
2023-04-10T07:36:39.027Z,8.65
2023-04-10T07:39:06.139Z,9.23
2023-04-10T07:41:33.014Z,8.55
2023-04-10T07:43:59.830Z,8.45
2023-04-10T07:46:27.554Z,8.10
2023-04-10T07:48:55.820Z,8.25
2023-04-10T07:51:23.295Z,8.00
2023-04-10T07:53:50.543Z,8.20
2023-04-10T07:56:18.938Z,8.13
2023-04-10T07:58:46.383Z,8.82
2023-04-10T08:01:13.515Z,8.88
2023-04-10T08:03:41.431Z,7.70
2023-04-10T08:06:11.969Z,8.15
2023-04-10T08:08:40.281Z,8.15
2023-04-10T08:11:21.552Z,8.70
2023-04-10T08:13:48.464Z,7.82
2023-04-10T08:16:15.428Z,7.10
2023-04-10T08:18:42.243Z,7.63
2023-04-10T08:21:09.020Z,8.05
2023-04-10T08:23:35.809Z,8.40
2023-04-10T08:26:02.553Z,7.22
2023-04-10T08:28:29.374Z,7.75
2023-04-10T08:30:56.157Z,7.80
2023-04-10T08:33:23.016Z,7.55
2023-04-10T08:35:49.949Z,7.38
2023-04-10T08:38:16.800Z,7.78
2023-04-10T08:40:44.780Z,7.40
2023-04-10T08:43:11.802Z,8.25
2023-04-10T08:45:41.316Z,8.18
2023-04-10T08:48:09.952Z,7.40
2023-04-10T08:50:43.175Z,7.28
2023-04-10T08:53:13.160Z,7.03
2023-04-10T08:55:41.066Z,7.97
2023-04-10T09:06:13.244Z,7.93
2023-04-10T09:11:22.876Z,6.85
2023-04-10T09:13:55.602Z,7.22
2023-04-10T09:16:32.476Z,7.10
2023-04-10T09:19:07.902Z,6.97
2023-04-10T09:21:38.364Z,6.13
2023-04-10T09:24:05.579Z,5.93
2023-04-10T09:26:36.140Z,6.05
2023-04-10T09:29:07.835Z,6.10
2023-04-10T09:31:39.441Z,6.25
2023-04-10T09:34:19.379Z,6.93
2023-04-10T09:36:57.085Z,7.05
2023-04-10T09:39:43.807Z,6.60
2023-04-10T09:42:14.906Z,6.15
2023-04-10T09:44:42.256Z,5.97
2023-04-10T09:47:16.197Z,5.57
2023-04-10T09:49:54.295Z,5.90
2023-04-10T09:52:27.980Z,5.65
2023-04-10T09:55:02.842Z,5.18
2023-04-10T09:57:32.125Z,4.63
2023-04-10T10:00:01.487Z,4.55
2023-04-10T10:02:34.688Z,4.90
2023-04-10T10:05:04.557Z,4.80
2023-04-10T10:08:12.855Z,5.30
2023-04-10T10:11:10.222Z,4.63
2023-04-10T10:22:43.597Z,3.95
2023-04-10T10:25:11.350Z,4.35
2023-04-10T10:27:47.007Z,3.92
2023-04-10T10:30:29.670Z,4.18
2023-04-10T10:32:59.131Z,4.72
2023-04-10T10:35:39.766Z,4.30
2023-04-10T10:38:20.572Z,4.03
2023-04-10T10:41:11.418Z,3.88
2023-04-10T10:43:53.052Z,4.35
2023-04-10T10:47:05.071Z,3.67
2023-04-10T10:49:57.128Z,4.05
2023-04-10T10:52:49.745Z,3.85
2023-04-10T10:55:22.974Z,3.80
2023-04-10T10:57:54.072Z,3.78
2023-04-10T11:00:22.476Z,4.25
2023-04-10T11:03:07.743Z,3.47
2023-04-10T11:05:55.201Z,3.80
2023-04-10T11:08:37.042Z,3.83
2023-04-10T11:11:10.808Z,2.85
2023-04-10T11:13:56.091Z,3.60
2023-04-10T11:16:29.957Z,3.28
2023-04-10T11:19:14.112Z,3.58
2023-04-10T11:22:06.148Z,3.65
2023-04-10T11:25:02.471Z,3.78
2023-04-10T11:27:49.366Z,3.05
2023-04-10T11:30:29.688Z,2.70
2023-04-10T11:32:57.281Z,3.58
2023-04-10T11:35:25.658Z,2.80
2023-04-10T11:37:53.042Z,2.88
2023-04-10T11:40:19.921Z,2.70
2023-04-10T11:42:48.202Z,2.92
2023-04-10T11:45:28.234Z,3.33
2023-04-10T11:47:55.611Z,2.75
2023-04-10T11:50:22.616Z,2.78
2023-04-10T11:52:54.567Z,2.35
2023-04-10T11:55:39.419Z,2.33
2023-04-10T11:58:22.023Z,2.42
2023-04-10T12:01:03.343Z,2.80
2023-04-10T12:03:33.352Z,2.65
2023-04-10T12:06:00.224Z,2.35
2023-04-10T12:08:34.826Z,2.75
2023-04-10T12:11:02.480Z,2.50
2023-04-10T12:13:30.642Z,2.22
2023-04-10T12:16:02.491Z,2.95
2023-04-10T12:20:59.541Z,2.40
2023-04-10T12:23:27.736Z,2.85
2023-04-10T12:26:15.831Z,2.78
2023-04-10T12:28:52.444Z,2.83
2023-04-10T12:31:28.116Z,2.42
2023-04-10T12:33:57.931Z,2.60
2023-04-10T12:36:29.936Z,3.20
2023-04-10T12:38:57.933Z,2.47
2023-04-10T12:41:30.553Z,2.63
2023-04-10T12:44:14.056Z,2.70
2023-04-10T12:46:42.342Z,2.20
2023-04-10T12:49:16.978Z,2.40
2023-04-10T12:51:52.467Z,2.83
2023-04-10T12:54:31.917Z,2.35
2023-04-10T12:56:59.245Z,3.03
2023-04-10T12:59:26.712Z,2.67
2023-04-10T13:01:54.424Z,2.40
2023-04-10T13:04:22.245Z,3.80
2023-04-10T13:06:53.731Z,2.95
2023-04-10T13:09:21.139Z,3.00
2023-04-10T13:12:07.448Z,2.55
2023-04-10T13:14:34.247Z,2.42
2023-04-10T13:17:01.044Z,2.60
2023-04-10T13:19:27.879Z,2.60
2023-04-10T13:21:54.652Z,2.42
2023-04-10T13:27:09.712Z,2.17
2023-04-10T13:29:37.137Z,2.53
2023-04-10T13:32:05.497Z,2.63
2023-04-10T13:34:33.144Z,2.97
2023-04-10T13:37:00.432Z,2.88
2023-04-10T13:39:29.452Z,2.22
2023-04-10T13:41:57.694Z,3.47
2023-04-10T13:44:24.652Z,2.90
2023-04-10T13:46:53.119Z,3.20
2023-04-10T13:49:22.142Z,2.33
2023-04-10T13:51:49.465Z,2.83
2023-04-10T13:54:20.117Z,2.75
2023-04-10T13:56:47.083Z,2.47
2023-04-10T13:59:14.157Z,2.95
2023-04-10T14:01:41.081Z,2.55
2023-04-10T14:04:08.513Z,2.25
2023-04-10T14:06:35.451Z,2.20
2023-04-10T14:09:02.449Z,2.10
2023-04-10T14:11:29.345Z,2.08
2023-04-10T14:13:56.236Z,2.42
2023-04-10T14:16:23.159Z,2.70
2023-04-10T14:18:50.017Z,2.38
2023-04-10T14:21:18.693Z,2.47
2023-04-10T14:26:38.976Z,1.73
2023-04-10T14:29:08.724Z,1.98
2023-04-10T14:31:41.479Z,2.10
2023-04-10T14:34:18.136Z,2.40
2023-04-10T14:36:44.869Z,1.90
2023-04-10T14:39:11.765Z,2.17
2023-04-10T14:41:38.587Z,2.60
2023-04-10T14:44:05.393Z,2.47
2023-04-10T14:46:32.339Z,2.10
2023-04-10T14:49:00.620Z,1.60
2023-04-10T14:51:30.542Z,1.50
2023-04-10T14:57:25.525Z,2.35
2023-04-10T14:59:52.337Z,2.33
2023-04-10T15:02:19.196Z,1.88
2023-04-10T15:04:46.080Z,1.85
2023-04-10T15:07:16.012Z,2.30
2023-04-10T15:09:44.572Z,2.05
2023-04-10T15:12:11.593Z,1.85
2023-04-10T15:14:38.398Z,2.03
2023-04-10T15:17:05.603Z,1.67
2023-04-10T15:19:32.580Z,1.20
2023-04-10T15:21:59.338Z,1.60
2023-04-10T15:24:26.124Z,1.83
2023-04-10T15:26:53.673Z,2.03
2023-04-10T15:29:20.526Z,2.20
2023-04-10T15:31:47.316Z,2.20
2023-04-10T15:34:14.080Z,2.03
2023-04-10T15:36:40.799Z,2.05
2023-04-10T15:39:07.552Z,1.75
2023-04-10T15:41:34.493Z,2.17
2023-04-10T15:44:01.346Z,1.88
2023-04-10T15:46:32.353Z,2.00
2023-04-10T15:49:00.727Z,1.50
2023-04-10T15:51:27.810Z,2.03
2023-04-10T15:53:54.907Z,1.77
2023-04-10T15:56:21.962Z,1.50
2023-04-10T15:58:48.743Z,1.60
2023-04-10T16:01:15.794Z,1.73
2023-04-10T16:03:42.892Z,1.85
2023-04-10T16:06:09.900Z,1.63
2023-04-10T16:08:36.703Z,2.20
2023-04-10T16:11:03.739Z,2.10
2023-04-10T16:13:30.735Z,2.05
2023-04-10T16:15:57.559Z,1.58
2023-04-10T16:18:24.472Z,2.03
2023-04-10T16:20:51.463Z,2.05
2023-04-10T16:23:18.318Z,2.17
2023-04-10T16:25:45.145Z,2.03
2023-04-10T16:28:12.007Z,2.40
2023-04-10T16:30:40.014Z,1.92
2023-04-10T16:33:06.993Z,1.65
2023-04-10T16:35:33.923Z,1.80
2023-04-10T16:38:00.790Z,1.80
2023-04-10T16:40:32.384Z,1.95
2023-04-10T16:45:27.450Z,2.20
2023-04-10T16:47:54.388Z,2.10
2023-04-10T16:50:21.304Z,2.15
2023-04-10T16:52:48.197Z,2.03
2023-04-10T16:55:15.770Z,1.70
2023-04-10T16:57:43.670Z,2.13
2023-04-10T17:00:11.537Z,2.30
2023-04-10T17:02:39.243Z,2.15
2023-04-10T17:05:06.477Z,2.00
2023-04-10T17:07:33.648Z,1.95
2023-04-10T17:10:00.574Z,2.22
2023-04-10T17:12:27.497Z,2.53
2023-04-10T17:14:54.361Z,2.83
2023-04-10T17:17:21.281Z,3.75
2023-04-10T17:19:48.480Z,3.50
2023-04-10T17:22:17.959Z,3.40
2023-04-10T17:24:45.328Z,3.83
2023-04-10T17:27:13.659Z,3.30
2023-04-10T17:29:41.091Z,3.30
2023-04-10T17:32:08.691Z,3.22
2023-04-10T17:34:37.602Z,3.20
2023-04-10T17:37:04.389Z,2.40
2023-04-10T17:39:31.265Z,3.90
2023-04-10T17:42:01.143Z,2.47
2023-04-10T17:44:27.957Z,2.60
2023-04-10T17:46:55.063Z,3.53
2023-04-10T17:49:22.336Z,4.05
2023-04-10T17:51:49.620Z,3.70
2023-04-10T17:54:16.439Z,3.42
2023-04-10T17:56:43.267Z,2.33
2023-04-10T17:59:10.643Z,2.47
2023-04-10T18:01:37.581Z,2.90
2023-04-10T18:04:04.808Z,2.53
2023-04-10T18:06:31.949Z,2.97
2023-04-10T18:08:58.862Z,2.85
2023-04-10T18:11:25.780Z,2.58
2023-04-10T18:13:52.693Z,2.75
2023-04-10T18:16:19.594Z,2.60
2023-04-10T18:18:46.729Z,2.83
2023-04-10T18:21:13.905Z,2.60
2023-04-10T18:23:40.986Z,2.67
2023-04-10T18:26:07.982Z,2.88
2023-04-10T18:28:36.311Z,2.85
2023-04-10T18:31:03.309Z,4.10
2023-04-10T18:33:32.552Z,3.33
2023-04-10T18:36:03.563Z,3.00
2023-04-10T18:38:33.017Z,3.23
2023-04-10T18:40:59.992Z,2.90
2023-04-10T18:43:29.821Z,3.25
2023-04-10T18:45:57.399Z,2.58
2023-04-10T18:48:24.267Z,3.08
2023-04-10T18:50:53.341Z,2.97
2023-04-10T18:53:21.350Z,2.80
2023-04-10T18:55:55.082Z,3.05
2023-04-10T18:58:22.841Z,2.70
2023-04-10T19:00:49.730Z,3.25
2023-04-10T19:03:16.848Z,3.22
2023-04-10T19:05:43.900Z,3.55
2023-04-10T19:08:14.478Z,2.78
2023-04-10T19:10:42.597Z,3.10
2023-04-10T19:13:11.720Z,3.35
2023-04-10T19:15:40.667Z,4.10
2023-04-10T19:18:07.892Z,3.70
2023-04-10T19:20:49.432Z,4.10
2023-04-10T19:23:18.088Z,3.55
2023-04-10T19:25:44.902Z,3.45
2023-04-10T19:28:11.795Z,3.47
2023-04-10T19:30:38.668Z,3.10
2023-04-10T19:33:05.530Z,3.17
2023-04-10T19:35:32.398Z,3.28
2023-04-10T19:37:59.367Z,3.15
2023-04-10T19:40:26.346Z,3.42
2023-04-10T19:42:53.164Z,3.97
2023-04-10T19:45:20.357Z,3.97
2023-04-10T19:47:50.848Z,3.55
2023-04-10T19:50:17.604Z,3.20
2023-04-10T19:52:44.458Z,3.75
2023-04-10T19:55:11.609Z,2.55
2023-04-10T19:57:38.327Z,3.17
2023-04-10T20:00:07.078Z,3.03
2023-04-10T20:02:34.146Z,3.33
2023-04-10T20:05:01.524Z,3.08
2023-04-10T20:07:28.484Z,3.83
2023-04-10T20:09:55.384Z,3.20
2023-04-10T20:12:22.181Z,3.55
2023-04-10T20:14:49.702Z,4.35
2023-04-10T20:17:16.586Z,3.83
2023-04-10T20:19:43.515Z,4.05
2023-04-10T20:22:10.388Z,3.38
2023-04-10T20:24:37.181Z,4.20
2023-04-10T20:27:03.987Z,4.10
2023-04-10T20:29:30.944Z,4.07
2023-04-10T20:31:57.994Z,3.80
2023-04-10T20:34:24.907Z,4.10
2023-04-10T20:36:51.757Z,3.80
2023-04-10T20:39:18.608Z,5.75
2023-04-10T20:41:45.338Z,5.18
2023-04-10T20:44:12.128Z,5.65
2023-04-10T20:46:40.240Z,4.82
2023-04-10T20:49:11.395Z,4.45
2023-04-10T20:51:38.636Z,4.60
2023-04-10T20:54:08.954Z,3.95
2023-04-10T20:56:42.738Z,3.92
2023-04-10T20:59:11.362Z,3.63
2023-04-10T21:01:38.825Z,4.03
2023-04-10T21:04:05.917Z,3.88
2023-04-10T21:06:33.689Z,3.55
2023-04-10T21:09:00.762Z,3.53
2023-04-10T21:11:27.709Z,3.53
2023-04-10T21:13:54.596Z,3.75
2023-04-10T21:16:21.649Z,4.25
2023-04-10T21:18:48.606Z,3.92
2023-04-10T21:21:16.676Z,3.10
2023-04-10T21:23:43.436Z,3.60
2023-04-10T21:26:10.606Z,3.42
2023-04-10T21:28:37.392Z,4.13
2023-04-10T21:31:04.368Z,3.78
2023-04-10T21:33:32.317Z,4.53
2023-04-10T21:35:59.090Z,4.05
2023-04-10T21:38:26.434Z,4.10
2023-04-10T21:40:54.250Z,3.75
2023-04-10T21:43:21.738Z,3.63
2023-04-10T21:45:49.143Z,3.35
2023-04-10T21:48:16.139Z,3.50
2023-04-10T21:50:43.017Z,3.53
2023-04-10T21:53:09.951Z,4.07
2023-04-10T21:55:36.789Z,3.75
2023-04-10T21:58:03.854Z,4.07
2023-04-10T22:00:30.666Z,4.10
2023-04-10T22:02:57.618Z,3.95
2023-04-10T22:05:26.734Z,3.90
2023-04-10T22:07:53.510Z,3.90
2023-04-10T22:10:20.529Z,4.57
2023-04-10T22:12:48.803Z,3.83
2023-04-10T22:15:16.618Z,3.92
2023-04-10T22:17:43.503Z,4.60
2023-04-10T22:20:10.835Z,3.72
2023-04-10T22:22:38.722Z,3.60
2023-04-10T22:25:06.044Z,3.72
2023-04-10T22:27:33.245Z,4.10
2023-04-10T22:30:03.722Z,3.35
2023-04-10T22:32:31.811Z,3.67
2023-04-10T22:34:59.609Z,4.50
2023-04-10T22:37:27.130Z,3.90
2023-04-10T22:39:56.340Z,3.85
2023-04-10T22:42:23.934Z,3.72
2023-04-10T22:44:50.814Z,3.70
2023-04-10T22:47:17.997Z,3.85
2023-04-10T22:49:44.973Z,4.00
2023-04-10T22:52:16.267Z,3.53
2023-04-10T22:54:43.086Z,3.83
2023-04-10T22:57:09.914Z,3.63
2023-04-10T22:59:37.318Z,3.90
2023-04-10T23:02:04.346Z,3.97
2023-04-10T23:04:31.590Z,3.90
2023-04-10T23:06:58.604Z,3.53
2023-04-10T23:09:27.977Z,3.80
2023-04-10T23:11:54.688Z,3.60
2023-04-10T23:14:21.509Z,3.25
2023-04-10T23:16:49.600Z,3.40
2023-04-10T23:19:16.407Z,3.42
2023-04-10T23:21:43.131Z,3.03
2023-04-10T23:24:09.882Z,2.70
2023-04-10T23:26:36.612Z,2.35
2023-04-10T23:29:03.372Z,2.70
2023-04-10T23:31:32.864Z,2.38
2023-04-10T23:33:59.632Z,1.80
2023-04-10T23:36:27.207Z,2.53
2023-04-10T23:38:54.362Z,1.85
2023-04-10T23:41:21.798Z,1.88
2023-04-10T23:43:48.565Z,1.88
2023-04-10T23:46:15.316Z,2.28
2023-04-10T23:48:42.148Z,2.03
2023-04-10T23:51:09.378Z,2.25
2023-04-10T23:53:36.292Z,2.33
2023-04-10T23:56:03.039Z,1.70
2023-04-10T23:58:29.976Z,2.55
